createdAt,value
2022-08-18T00:00:39.297Z,0.00
2022-08-18T00:01:39.312Z,0.00
2022-08-18T00:02:39.258Z,0.00
2022-08-18T00:03:56.027Z,0.00
2022-08-18T00:04:48.762Z,0.00
2022-08-18T00:05:40.247Z,0.00
2022-08-18T00:06:39.209Z,0.00
2022-08-18T00:07:39.209Z,0.00
2022-08-18T00:08:40.238Z,0.00
2022-08-18T00:09:39.209Z,0.00
2022-08-18T00:10:39.161Z,0.00
2022-08-18T00:11:40.547Z,0.00
2022-08-18T00:12:39.303Z,0.00
2022-08-18T00:13:39.169Z,0.00
2022-08-18T00:14:39.156Z,0.00
2022-08-18T00:15:41.699Z,0.00
2022-08-18T00:16:40.102Z,0.00
2022-08-18T00:17:39.074Z,0.00
2022-08-18T00:18:42.071Z,0.00
2022-08-18T00:19:47.094Z,0.00
2022-08-18T00:20:40.055Z,0.00
2022-08-18T00:21:39.092Z,0.00
2022-08-18T00:22:38.996Z,0.00
2022-08-18T00:23:39.021Z,0.00
2022-08-18T00:24:38.996Z,0.00
2022-08-18T00:25:39.979Z,0.00
2022-08-18T00:26:38.937Z,0.00
2022-08-18T00:27:38.918Z,0.00
2022-08-18T00:28:38.971Z,0.00
2022-08-18T00:29:38.919Z,0.00
2022-08-18T00:30:38.938Z,0.00
2022-08-18T00:31:38.884Z,0.00
2022-08-18T00:32:38.914Z,0.00
2022-08-18T00:33:38.911Z,0.00
2022-08-18T00:34:38.844Z,0.00
2022-08-18T00:35:38.841Z,0.00
2022-08-18T00:36:38.792Z,0.00
2022-08-18T00:37:38.954Z,0.00
2022-08-18T00:38:41.807Z,0.00
2022-08-18T00:39:45.971Z,0.00
2022-08-18T00:40:39.831Z,0.00
2022-08-18T00:41:38.735Z,0.00
2022-08-18T00:42:38.725Z,0.00
2022-08-18T00:43:38.713Z,0.00
2022-08-18T00:44:38.686Z,0.00
2022-08-18T00:45:38.691Z,0.00
2022-08-18T00:46:38.686Z,0.00
2022-08-18T00:47:42.268Z,0.00
2022-08-18T00:48:38.628Z,0.00
2022-08-18T00:49:38.618Z,0.00
2022-08-18T00:50:38.616Z,0.00
2022-08-18T00:51:38.608Z,0.00
2022-08-18T00:52:38.654Z,0.00
2022-08-18T00:53:38.559Z,0.00
2022-08-18T00:54:38.551Z,0.00
2022-08-18T00:55:38.531Z,0.00
2022-08-18T00:56:39.517Z,0.00
2022-08-18T00:57:38.514Z,0.00
2022-08-18T00:58:41.511Z,0.00
2022-08-18T00:59:41.511Z,0.00
2022-08-18T01:00:38.557Z,0.00
2022-08-18T01:01:38.502Z,0.00
2022-08-18T01:02:38.436Z,0.00
2022-08-18T01:03:38.434Z,0.00
2022-08-18T01:04:38.572Z,0.00
2022-08-18T01:05:38.404Z,0.00
2022-08-18T01:06:38.375Z,0.00
2022-08-18T01:07:38.376Z,0.00
2022-08-18T01:08:38.366Z,0.00
2022-08-18T01:09:38.344Z,0.00
2022-08-18T01:10:38.408Z,0.00
2022-08-18T01:11:38.347Z,0.00
2022-08-18T01:12:45.398Z,0.00
2022-08-18T01:13:39.291Z,0.00
2022-08-18T01:14:38.269Z,0.00
2022-08-18T01:15:38.283Z,0.00
2022-08-18T01:16:38.270Z,0.00
2022-08-18T01:17:39.361Z,0.00
2022-08-18T01:18:41.281Z,0.00
2022-08-18T01:19:41.284Z,0.00
2022-08-18T01:20:38.262Z,0.00
2022-08-18T01:21:38.230Z,0.00
2022-08-18T01:22:38.161Z,0.00
2022-08-18T01:23:38.193Z,0.00
2022-08-18T01:24:38.152Z,0.00
2022-08-18T01:25:38.125Z,0.00
2022-08-18T01:26:38.103Z,0.00
2022-08-18T01:27:39.123Z,0.00
2022-08-18T01:28:38.074Z,0.00
2022-08-18T01:29:42.919Z,0.00
2022-08-18T01:30:39.088Z,0.00
2022-08-18T01:31:38.281Z,0.00
2022-08-18T01:32:38.076Z,0.00
2022-08-18T01:33:38.093Z,0.00
2022-08-18T01:34:38.108Z,0.00
2022-08-18T01:35:41.911Z,0.00
2022-08-18T01:36:37.982Z,0.00
2022-08-18T01:37:38.949Z,0.00
2022-08-18T01:38:40.939Z,0.00
2022-08-18T01:41:17.569Z,0.00
2022-08-18T01:41:25.599Z,0.00
2022-08-18T01:41:38.921Z,0.00
2022-08-18T01:42:38.646Z,0.00
2022-08-18T01:43:37.891Z,0.00
2022-08-18T01:44:37.894Z,0.00
2022-08-18T01:45:37.891Z,0.00
2022-08-18T01:46:37.859Z,0.00
2022-08-18T01:47:57.336Z,0.00
2022-08-18T01:48:38.816Z,0.00
2022-08-18T01:49:37.800Z,0.00
2022-08-18T01:50:37.782Z,0.00
2022-08-18T01:51:39.809Z,0.00
2022-08-18T01:52:39.238Z,0.00
2022-08-18T01:53:37.729Z,0.00
2022-08-18T01:54:37.734Z,0.00
2022-08-18T01:55:37.748Z,0.00
2022-08-18T01:56:37.788Z,0.00
2022-08-18T01:57:38.719Z,0.00
2022-08-18T01:58:40.667Z,0.00
2022-08-18T01:59:40.669Z,0.00
2022-08-18T02:00:37.639Z,0.00
2022-08-18T02:01:37.814Z,0.00
2022-08-18T02:02:39.600Z,0.00
2022-08-18T02:03:37.591Z,0.00
2022-08-18T02:04:37.778Z,0.00
2022-08-18T02:05:37.695Z,0.00
2022-08-18T02:06:37.600Z,0.00
2022-08-18T02:07:38.402Z,0.00
2022-08-18T02:08:37.532Z,0.00
2022-08-18T02:09:37.737Z,0.00
2022-08-18T02:10:37.494Z,0.00
2022-08-18T02:11:37.479Z,0.00
2022-08-18T02:12:38.214Z,0.00
2022-08-18T02:13:37.540Z,0.00
2022-08-18T02:14:37.464Z,0.00
2022-08-18T02:15:37.552Z,0.00
2022-08-18T02:16:37.444Z,0.00
2022-08-18T02:17:38.155Z,0.00
2022-08-18T02:18:48.204Z,0.00
2022-08-18T02:19:41.413Z,0.00
2022-08-18T02:20:37.366Z,0.00
2022-08-18T02:21:37.357Z,0.00
2022-08-18T02:22:38.080Z,0.00
2022-08-18T02:23:37.372Z,0.00
2022-08-18T02:24:37.336Z,0.00
2022-08-18T02:25:37.290Z,0.00
2022-08-18T02:26:37.265Z,0.00
2022-08-18T02:27:37.279Z,0.00
2022-08-18T02:28:37.250Z,0.00
2022-08-18T02:29:37.272Z,0.00
2022-08-18T02:30:37.311Z,0.00
2022-08-18T02:31:37.272Z,0.00
2022-08-18T02:32:37.213Z,0.00
2022-08-18T02:33:37.270Z,0.00
2022-08-18T02:34:37.168Z,0.00
2022-08-18T02:35:37.187Z,0.00
2022-08-18T02:36:37.115Z,0.00
2022-08-18T02:37:37.865Z,0.00
2022-08-18T02:38:40.096Z,0.00
2022-08-18T02:39:40.140Z,0.00
2022-08-18T02:40:37.077Z,0.00
2022-08-18T02:41:37.099Z,0.00
2022-08-18T02:42:37.058Z,0.00
2022-08-18T02:43:37.851Z,0.00
2022-08-18T02:44:36.998Z,0.00
2022-08-18T02:45:37.030Z,0.00
2022-08-18T02:46:36.987Z,0.00
2022-08-18T02:47:36.982Z,0.00
2022-08-18T02:48:37.005Z,0.00
2022-08-18T02:49:37.010Z,0.00
2022-08-18T02:50:37.009Z,0.00
2022-08-18T02:51:36.985Z,0.00
2022-08-18T02:52:37.034Z,0.00
2022-08-18T02:53:36.982Z,0.00
2022-08-18T02:54:36.983Z,0.00
2022-08-18T02:55:36.862Z,0.00
2022-08-18T02:56:42.088Z,0.00
2022-08-18T02:57:37.823Z,0.00
2022-08-18T02:58:39.864Z,0.00
2022-08-18T02:59:39.815Z,0.00
2022-08-18T03:00:36.802Z,0.00
2022-08-18T03:01:36.946Z,0.00
2022-08-18T03:02:36.835Z,0.00
2022-08-18T03:03:36.768Z,0.00
2022-08-18T03:04:36.847Z,0.00
2022-08-18T03:05:36.738Z,0.00
2022-08-18T03:06:36.688Z,0.00
2022-08-18T03:07:36.748Z,0.00
2022-08-18T03:08:36.657Z,0.00
2022-08-18T03:09:36.647Z,0.00
2022-08-18T03:10:36.708Z,0.00
2022-08-18T03:11:36.611Z,0.00
2022-08-18T03:12:36.599Z,0.00
2022-08-18T03:13:36.590Z,0.00
2022-08-18T03:14:36.570Z,0.00
2022-08-18T03:15:36.561Z,0.00
2022-08-18T03:16:36.571Z,0.00
2022-08-18T03:17:36.522Z,0.00
2022-08-18T03:18:39.544Z,0.00
2022-08-18T03:19:39.513Z,0.00
2022-08-18T03:20:36.523Z,0.00
2022-08-18T03:21:36.472Z,0.00
2022-08-18T03:22:36.454Z,0.00
2022-08-18T03:23:36.448Z,0.00
2022-08-18T03:24:36.475Z,0.00
2022-08-18T03:25:36.435Z,0.00
2022-08-18T03:26:36.404Z,0.00
2022-08-18T03:27:36.393Z,0.00
2022-08-18T03:28:36.374Z,0.00
2022-08-18T03:29:36.367Z,0.00
2022-08-18T03:30:36.377Z,0.00
2022-08-18T03:31:36.339Z,0.00
2022-08-18T03:32:36.307Z,0.00
2022-08-18T03:33:36.297Z,0.00
2022-08-18T03:34:36.268Z,0.00
2022-08-18T03:35:36.305Z,0.00
2022-08-18T03:36:36.268Z,0.00
2022-08-18T03:37:36.240Z,0.00
2022-08-18T03:38:39.260Z,0.00
2022-08-18T03:39:39.257Z,0.00
2022-08-18T03:40:36.211Z,0.00
2022-08-18T03:41:56.876Z,0.00
2022-08-18T03:42:37.182Z,0.00
2022-08-18T03:43:50.963Z,0.00
2022-08-18T03:44:37.165Z,0.00
2022-08-18T03:45:36.133Z,0.00
2022-08-18T03:46:36.153Z,0.00
2022-08-18T03:47:36.113Z,0.00
2022-08-18T03:48:36.123Z,0.00
2022-08-18T03:49:36.115Z,0.00
2022-08-18T03:50:36.104Z,0.00
2022-08-18T03:51:36.069Z,0.00
2022-08-18T03:52:36.083Z,0.00
2022-08-18T03:53:37.106Z,0.00
2022-08-18T03:54:36.006Z,0.00
2022-08-18T03:55:36.010Z,0.00
2022-08-18T03:56:35.997Z,0.00
2022-08-18T03:57:39.042Z,0.00
2022-08-18T03:58:39.008Z,0.00
2022-08-18T03:59:38.974Z,0.00
2022-08-18T04:00:35.967Z,0.00
2022-08-18T04:01:36.002Z,0.00
2022-08-18T04:02:35.997Z,0.00
2022-08-18T04:03:35.909Z,0.00
2022-08-18T04:04:35.890Z,0.00
2022-08-18T04:05:35.881Z,0.00
2022-08-18T04:06:35.862Z,0.00
2022-08-18T04:07:35.883Z,0.00
2022-08-18T04:08:35.841Z,0.00
2022-08-18T04:09:35.842Z,0.00
2022-08-18T04:10:35.816Z,0.00
2022-08-18T04:11:37.189Z,0.00
2022-08-18T04:12:35.836Z,0.00
2022-08-18T04:13:35.791Z,0.00
2022-08-18T04:14:35.788Z,0.00
2022-08-18T04:15:35.755Z,0.00
2022-08-18T04:16:35.738Z,0.00
2022-08-18T04:17:35.716Z,0.00
2022-08-18T04:18:39.726Z,0.00
2022-08-18T04:19:38.729Z,0.00
2022-08-18T04:20:35.698Z,0.00
2022-08-18T04:21:35.666Z,0.00
2022-08-18T04:22:35.680Z,0.00
2022-08-18T04:23:43.764Z,0.00
2022-08-18T04:24:36.617Z,0.00
2022-08-18T04:25:35.610Z,0.00
2022-08-18T04:26:35.590Z,0.00
2022-08-18T04:27:35.581Z,0.00
2022-08-18T04:28:35.562Z,0.00
2022-08-18T04:29:35.590Z,0.00
2022-08-18T04:30:35.537Z,0.00
2022-08-18T04:31:35.533Z,0.00
2022-08-18T04:32:35.502Z,0.00
2022-08-18T04:33:35.575Z,0.00
2022-08-18T04:34:35.479Z,0.00
2022-08-18T04:35:35.475Z,0.00
2022-08-18T04:36:35.469Z,0.00
2022-08-18T04:37:37.973Z,0.00
2022-08-18T04:38:39.468Z,0.00
2022-08-18T04:39:38.525Z,5.62
2022-08-18T04:40:35.398Z,5.62
2022-08-18T04:41:35.407Z,5.62
2022-08-18T04:42:35.369Z,5.62
2022-08-18T04:43:36.391Z,5.62
2022-08-18T04:44:35.388Z,5.62
2022-08-18T04:45:35.334Z,5.62
2022-08-18T04:46:35.321Z,5.62
2022-08-18T04:47:35.328Z,5.62
2022-08-18T04:48:35.290Z,5.62
2022-08-18T04:49:35.270Z,5.62
2022-08-18T04:50:35.314Z,5.62
2022-08-18T04:52:37.140Z,5.62
2022-08-18T04:52:40.366Z,11.25
2022-08-18T04:53:36.228Z,11.25
2022-08-18T04:54:35.203Z,11.25
2022-08-18T04:55:35.181Z,11.25
2022-08-18T04:56:35.213Z,11.25
2022-08-18T04:57:35.393Z,11.25
2022-08-18T04:58:38.158Z,11.25
2022-08-18T04:59:38.214Z,11.25
2022-08-18T05:00:35.133Z,11.25
2022-08-18T05:01:35.166Z,11.25
2022-08-18T05:02:35.134Z,11.25
2022-08-18T05:03:35.085Z,11.25
2022-08-18T05:04:35.075Z,16.88
2022-08-18T05:05:35.096Z,16.88
2022-08-18T05:06:35.036Z,16.88
2022-08-18T05:07:35.036Z,16.88
2022-08-18T05:08:35.027Z,16.88
2022-08-18T05:09:41.517Z,16.88
2022-08-18T05:10:36.018Z,22.50
2022-08-18T05:11:34.978Z,22.50
2022-08-18T05:12:34.969Z,22.50
2022-08-18T05:13:34.950Z,22.50
2022-08-18T05:14:34.937Z,22.50
2022-08-18T05:15:59.291Z,22.50
2022-08-18T05:16:35.925Z,22.50
2022-08-18T05:17:34.897Z,28.12
2022-08-18T05:18:37.881Z,28.12
2022-08-18T05:19:42.130Z,28.12
2022-08-18T05:20:35.881Z,28.12
2022-08-18T05:21:34.841Z,28.12
2022-08-18T05:22:34.832Z,28.12
2022-08-18T05:23:34.806Z,28.12
2022-08-18T05:24:37.705Z,28.12
2022-08-18T05:25:34.783Z,22.50
2022-08-18T05:26:34.775Z,22.50
2022-08-18T05:27:34.772Z,22.50
2022-08-18T05:28:34.735Z,28.12
2022-08-18T05:29:34.716Z,28.12
2022-08-18T05:30:34.737Z,33.75
2022-08-18T05:31:34.697Z,33.75
2022-08-18T05:32:47.421Z,33.75
2022-08-18T05:33:35.673Z,33.75
2022-08-18T05:34:34.658Z,33.75
2022-08-18T05:35:34.629Z,33.75
2022-08-18T05:36:34.628Z,33.75
2022-08-18T05:37:35.794Z,33.75
2022-08-18T05:38:37.618Z,33.75
2022-08-18T05:39:37.653Z,33.75
2022-08-18T05:40:34.573Z,33.75
2022-08-18T05:41:34.562Z,28.12
2022-08-18T05:42:34.545Z,28.12
2022-08-18T05:43:34.551Z,28.12
2022-08-18T05:44:34.504Z,28.12
2022-08-18T05:45:34.493Z,33.75
2022-08-18T05:46:34.476Z,28.12
2022-08-18T05:47:34.464Z,33.75
2022-08-18T05:48:34.491Z,33.75
2022-08-18T05:49:34.435Z,28.12
2022-08-18T05:50:34.425Z,28.12
2022-08-18T05:51:34.407Z,22.50
2022-08-18T05:52:34.392Z,28.12
2022-08-18T05:53:34.375Z,33.75
2022-08-18T05:54:34.406Z,33.75
2022-08-18T05:55:34.347Z,33.75
2022-08-18T05:56:34.337Z,33.75
2022-08-18T05:57:34.317Z,33.75
2022-08-18T05:58:37.318Z,28.12
2022-08-18T05:59:37.346Z,28.12
2022-08-18T06:00:34.278Z,28.12
2022-08-18T06:01:34.269Z,28.12
2022-08-18T06:02:34.280Z,28.12
2022-08-18T06:03:45.069Z,28.12
2022-08-18T06:04:35.221Z,28.12
2022-08-18T06:05:34.231Z,28.12
2022-08-18T06:06:34.201Z,28.12
2022-08-18T06:07:34.223Z,33.75
2022-08-18T06:08:34.162Z,33.75
2022-08-18T06:09:34.142Z,33.75
2022-08-18T06:10:34.166Z,33.75
2022-08-18T06:11:34.130Z,39.38
2022-08-18T06:12:37.340Z,39.38
2022-08-18T06:13:34.091Z,33.75
2022-08-18T06:14:34.074Z,33.75
2022-08-18T06:15:34.064Z,33.75
2022-08-18T06:16:35.046Z,33.75
2022-08-18T06:17:34.036Z,33.75
2022-08-18T06:18:37.067Z,33.75
2022-08-18T06:19:37.027Z,33.75
2022-08-18T06:20:34.009Z,33.75
2022-08-18T06:21:38.743Z,33.75
2022-08-18T06:22:34.958Z,33.75
2022-08-18T06:23:33.947Z,33.75
2022-08-18T06:24:33.971Z,33.75
2022-08-18T06:25:33.924Z,33.75
2022-08-18T06:26:33.910Z,39.38
2022-08-18T06:27:33.919Z,39.38
2022-08-18T06:28:33.888Z,39.38
2022-08-18T06:29:33.872Z,39.38
2022-08-18T06:30:33.874Z,45.00
2022-08-18T06:31:33.842Z,45.00
2022-08-18T06:32:33.831Z,39.38
2022-08-18T06:33:33.813Z,45.00
2022-08-18T06:34:33.834Z,56.25
2022-08-18T06:35:33.783Z,61.88
2022-08-18T06:36:33.773Z,61.88
2022-08-18T06:37:33.758Z,61.88
2022-08-18T06:38:36.765Z,61.88
2022-08-18T06:39:36.817Z,61.88
2022-08-18T06:40:33.788Z,61.88
2022-08-18T06:41:41.572Z,61.88
2022-08-18T06:42:37.600Z,61.88
2022-08-18T06:43:34.687Z,61.88
2022-08-18T06:44:33.668Z,61.88
2022-08-18T06:45:35.848Z,67.50
2022-08-18T06:46:33.671Z,67.50
2022-08-18T06:47:33.627Z,73.12
2022-08-18T06:48:33.619Z,73.12
2022-08-18T06:49:33.590Z,78.75
2022-08-18T06:50:33.657Z,78.75
2022-08-18T06:51:36.322Z,84.38
2022-08-18T06:52:34.575Z,90.00
2022-08-18T06:53:33.540Z,90.00
2022-08-18T06:54:33.522Z,95.62
2022-08-18T06:55:33.524Z,106.88
2022-08-18T06:56:33.533Z,112.50
2022-08-18T06:57:33.493Z,118.12
2022-08-18T06:58:36.482Z,129.38
2022-08-18T06:59:36.474Z,135.00
2022-08-18T07:00:33.621Z,123.75
2022-08-18T07:01:33.462Z,118.12
2022-08-18T07:02:35.426Z,106.88
2022-08-18T07:03:33.407Z,101.25
2022-08-18T07:04:33.398Z,101.25
2022-08-18T07:05:33.385Z,95.62
2022-08-18T07:06:33.387Z,95.62
2022-08-18T07:07:40.383Z,95.62
2022-08-18T07:08:35.734Z,90.00
2022-08-18T07:09:33.319Z,84.38
2022-08-18T07:10:33.317Z,78.75
2022-08-18T07:11:33.310Z,78.75
2022-08-18T07:12:33.327Z,84.38
2022-08-18T07:13:33.268Z,84.38
2022-08-18T07:14:33.250Z,84.38
2022-08-18T07:15:33.256Z,78.75
2022-08-18T07:16:56.601Z,78.75
2022-08-18T07:17:42.728Z,78.75
2022-08-18T07:18:37.202Z,73.12
2022-08-18T07:19:36.204Z,73.12
2022-08-18T07:20:33.181Z,78.75
2022-08-18T07:21:33.164Z,78.75
2022-08-18T07:22:39.513Z,78.75
2022-08-18T07:23:34.156Z,73.12
2022-08-18T07:24:33.124Z,73.12
2022-08-18T07:25:33.105Z,73.12
2022-08-18T07:26:33.095Z,78.75
2022-08-18T07:27:33.075Z,84.38
2022-08-18T07:28:33.087Z,84.38
2022-08-18T07:29:33.047Z,95.62
2022-08-18T07:30:33.037Z,106.88
2022-08-18T07:31:33.068Z,112.50
2022-08-18T07:32:33.039Z,112.50
2022-08-18T07:33:32.989Z,123.75
2022-08-18T07:34:32.978Z,151.88
2022-08-18T07:35:32.982Z,146.25
2022-08-18T07:36:32.950Z,146.25
2022-08-18T07:37:32.974Z,151.88
2022-08-18T07:38:44.241Z,151.88
2022-08-18T07:39:36.972Z,168.75
2022-08-18T07:40:32.901Z,196.88
2022-08-18T07:41:32.886Z,202.50
2022-08-18T07:42:53.687Z,208.12
2022-08-18T07:43:33.885Z,191.25
2022-08-18T07:44:32.846Z,174.38
2022-08-18T07:45:32.825Z,174.38
2022-08-18T07:46:32.817Z,168.75
2022-08-18T07:47:32.795Z,168.75
2022-08-18T07:48:40.413Z,174.38
2022-08-18T07:49:35.291Z,185.62
2022-08-18T07:50:58.184Z,196.88
2022-08-18T07:51:37.085Z,219.38
2022-08-18T07:52:36.151Z,225.00
2022-08-18T07:53:33.751Z,253.12
2022-08-18T07:54:49.786Z,270.00
2022-08-18T07:55:33.698Z,264.38
2022-08-18T07:56:32.689Z,241.88
2022-08-18T07:57:32.660Z,264.38
2022-08-18T07:58:36.748Z,292.50
2022-08-18T07:59:35.655Z,264.38
2022-08-18T08:00:57.582Z,253.12
2022-08-18T08:01:33.942Z,258.75
2022-08-18T08:02:32.600Z,264.38
2022-08-18T08:03:32.573Z,258.75
2022-08-18T08:04:32.593Z,292.50
2022-08-18T08:05:32.564Z,281.25
2022-08-18T08:06:32.602Z,236.25
2022-08-18T08:07:32.521Z,180.00
2022-08-18T08:08:32.525Z,163.12
2022-08-18T08:09:32.495Z,163.12
2022-08-18T08:10:32.486Z,191.25
2022-08-18T08:11:32.467Z,208.12
2022-08-18T08:12:32.499Z,219.38
2022-08-18T08:13:54.146Z,213.75
2022-08-18T08:14:33.450Z,208.12
2022-08-18T08:15:32.417Z,196.88
2022-08-18T08:16:32.400Z,163.12
2022-08-18T08:17:32.388Z,135.00
2022-08-18T08:18:35.432Z,135.00
2022-08-18T08:19:58.803Z,129.38
2022-08-18T08:20:33.364Z,135.00
2022-08-18T08:21:32.351Z,157.50
2022-08-18T08:22:32.323Z,168.75
2022-08-18T08:23:32.325Z,174.38
2022-08-18T08:24:32.324Z,202.50
2022-08-18T08:25:46.285Z,225.00
2022-08-18T08:26:33.264Z,241.88
2022-08-18T08:27:32.251Z,236.25
2022-08-18T08:28:32.255Z,219.38
2022-08-18T08:29:32.255Z,208.12
2022-08-18T08:30:32.206Z,219.38
2022-08-18T08:31:37.298Z,230.62
2022-08-18T08:32:33.186Z,208.12
2022-08-18T08:33:32.177Z,202.50
2022-08-18T08:34:32.158Z,202.50
2022-08-18T08:35:47.201Z,202.50
2022-08-18T08:36:33.158Z,202.50
2022-08-18T08:37:32.109Z,225.00
2022-08-18T08:38:43.058Z,230.62
2022-08-18T08:39:36.209Z,225.00
2022-08-18T08:40:32.079Z,230.62
2022-08-18T08:41:32.071Z,275.62
2022-08-18T08:42:35.345Z,281.25
2022-08-18T08:43:33.067Z,270.00
2022-08-18T08:44:32.022Z,208.12
2022-08-18T08:45:32.033Z,174.38
2022-08-18T08:46:32.000Z,157.50
2022-08-18T08:47:31.974Z,146.25
2022-08-18T08:48:31.994Z,140.62
2022-08-18T08:49:32.012Z,140.62
2022-08-18T08:50:31.945Z,151.88
2022-08-18T08:51:31.935Z,196.88
2022-08-18T08:52:31.907Z,196.88
2022-08-18T08:53:31.897Z,180.00
2022-08-18T08:54:31.889Z,168.75
2022-08-18T08:55:31.940Z,151.88
2022-08-18T08:56:31.849Z,140.62
2022-08-18T08:57:31.839Z,123.75
2022-08-18T08:58:34.828Z,106.88
2022-08-18T08:59:34.830Z,95.62
2022-08-18T09:00:31.807Z,78.75
2022-08-18T09:01:32.083Z,67.50
2022-08-18T09:02:47.347Z,67.50
2022-08-18T09:03:32.763Z,78.75
2022-08-18T09:04:31.752Z,95.62
2022-08-18T09:05:31.744Z,118.12
2022-08-18T09:06:31.730Z,180.00
2022-08-18T09:07:31.754Z,208.12
2022-08-18T09:08:32.698Z,213.75
2022-08-18T09:09:31.685Z,213.75
2022-08-18T09:10:31.665Z,241.88
2022-08-18T09:11:31.667Z,247.50
2022-08-18T09:12:31.637Z,253.12
2022-08-18T09:13:31.667Z,241.88
2022-08-18T09:14:31.609Z,264.38
2022-08-18T09:15:31.606Z,275.62
2022-08-18T09:16:31.598Z,275.62
2022-08-18T09:17:34.212Z,275.62
2022-08-18T09:18:34.609Z,275.62
2022-08-18T09:19:34.558Z,225.00
2022-08-18T09:20:31.547Z,213.75
2022-08-18T09:21:31.519Z,225.00
2022-08-18T09:22:31.500Z,236.25
2022-08-18T09:23:31.492Z,253.12
2022-08-18T09:24:31.493Z,270.00
2022-08-18T09:25:31.522Z,281.25
2022-08-18T09:26:31.460Z,303.75
2022-08-18T09:27:34.739Z,292.50
2022-08-18T09:28:32.428Z,281.25
2022-08-18T09:29:31.415Z,270.00
2022-08-18T09:30:31.386Z,264.38
2022-08-18T09:32:32.365Z,264.38
2022-08-18T09:33:31.356Z,270.00
2022-08-18T09:34:31.337Z,275.62
2022-08-18T09:35:31.332Z,270.00
2022-08-18T09:36:31.338Z,264.38
2022-08-18T09:37:31.300Z,258.75
2022-08-18T09:38:34.290Z,264.38
2022-08-18T09:39:34.310Z,264.38
2022-08-18T09:41:01.009Z,247.50
2022-08-18T09:41:32.272Z,236.25
2022-08-18T09:42:31.231Z,230.62
2022-08-18T09:43:31.212Z,219.38
2022-08-18T09:44:31.213Z,196.88
2022-08-18T09:45:33.669Z,180.00
2022-08-18T09:46:31.194Z,174.38
2022-08-18T09:47:31.203Z,168.75
2022-08-18T09:48:31.717Z,180.00
2022-08-18T09:49:31.164Z,202.50
2022-08-18T09:50:32.126Z,241.88
2022-08-18T09:51:31.107Z,275.62
2022-08-18T09:52:31.116Z,298.12
2022-08-18T09:53:31.079Z,309.38
2022-08-18T09:54:31.068Z,258.75
2022-08-18T09:55:31.079Z,241.88
2022-08-18T09:56:31.046Z,208.12
2022-08-18T09:57:31.060Z,185.62
2022-08-18T09:58:35.000Z,174.38
2022-08-18T10:00:33.335Z,180.00
2022-08-18T10:01:31.066Z,241.88
2022-08-18T10:02:30.953Z,253.12
2022-08-18T10:03:31.452Z,230.62
2022-08-18T10:04:30.932Z,264.38
2022-08-18T10:05:30.926Z,247.50
2022-08-18T10:06:30.909Z,208.12
2022-08-18T10:07:37.002Z,270.00
2022-08-18T10:08:31.873Z,270.00
2022-08-18T10:09:36.943Z,286.88
2022-08-18T10:11:31.835Z,286.88
2022-08-18T10:12:30.817Z,270.00
2022-08-18T10:13:31.696Z,230.62
2022-08-18T10:14:30.788Z,247.50
2022-08-18T10:15:33.437Z,213.75
2022-08-18T10:16:31.939Z,247.50
2022-08-18T10:17:30.770Z,225.00
2022-08-18T10:18:33.759Z,219.38
2022-08-18T10:19:39.833Z,213.75
2022-08-18T10:20:31.710Z,213.75
2022-08-18T10:21:33.537Z,213.75
2022-08-18T10:22:35.397Z,202.50
2022-08-18T10:23:42.801Z,191.25
2022-08-18T10:24:36.472Z,185.62
2022-08-18T10:25:31.647Z,185.62
2022-08-18T10:26:30.626Z,180.00
2022-08-18T10:27:30.689Z,185.62
2022-08-18T10:28:32.068Z,241.88
2022-08-18T10:29:30.652Z,202.50
2022-08-18T10:30:34.118Z,196.88
2022-08-18T10:31:30.561Z,241.88
2022-08-18T10:32:30.541Z,264.38
2022-08-18T10:33:31.291Z,270.00
2022-08-18T10:34:30.572Z,275.62
2022-08-18T10:35:32.776Z,281.25
2022-08-18T10:36:30.535Z,292.50
2022-08-18T10:37:30.554Z,298.12
2022-08-18T10:38:33.464Z,230.62
2022-08-18T10:39:33.530Z,236.25
2022-08-18T10:40:31.475Z,241.88
2022-08-18T10:41:30.901Z,213.75
2022-08-18T10:42:31.531Z,185.62
2022-08-18T10:44:31.317Z,174.38
2022-08-18T10:45:25.438Z,168.75
2022-08-18T10:46:26.519Z,163.12
2022-08-18T10:47:24.807Z,163.12
2022-08-18T10:49:25.224Z,191.25
2022-08-18T10:50:24.194Z,185.62
2022-08-18T10:51:24.347Z,202.50
2022-08-18T10:52:24.178Z,270.00
2022-08-18T10:53:40.775Z,281.25
2022-08-18T10:54:25.148Z,292.50
2022-08-18T10:55:24.127Z,292.50
2022-08-18T10:56:26.807Z,298.12
2022-08-18T10:57:24.155Z,286.88
2022-08-18T10:58:24.104Z,286.88
2022-08-18T10:59:28.602Z,286.88
2022-08-18T11:00:24.122Z,286.88
2022-08-18T11:01:24.121Z,275.62
2022-08-18T11:02:24.041Z,264.38
2022-08-18T11:03:51.496Z,264.38
2022-08-18T11:04:33.977Z,264.38
2022-08-18T11:05:25.005Z,225.00
2022-08-18T11:06:23.995Z,185.62
2022-08-18T11:07:23.991Z,247.50
2022-08-18T11:08:23.994Z,174.38
2022-08-18T11:09:24.025Z,168.75
2022-08-18T11:10:31.927Z,168.75
2022-08-18T11:11:34.720Z,168.75
2022-08-18T11:12:24.905Z,168.75
2022-08-18T11:13:23.924Z,174.38
2022-08-18T11:14:23.910Z,180.00
2022-08-18T11:15:24.123Z,191.25
2022-08-18T11:16:23.887Z,208.12
2022-08-18T11:17:24.167Z,213.75
2022-08-18T11:18:23.838Z,208.12
2022-08-18T11:19:23.813Z,208.12
2022-08-18T11:20:24.364Z,208.12
2022-08-18T11:21:23.790Z,202.50
2022-08-18T11:22:24.400Z,202.50
2022-08-18T11:23:27.772Z,219.38
2022-08-18T11:24:26.789Z,281.25
2022-08-18T11:25:23.743Z,275.62
2022-08-18T11:26:23.754Z,270.00
2022-08-18T11:27:23.769Z,275.62
2022-08-18T11:28:30.403Z,292.50
2022-08-18T11:29:24.699Z,230.62
2022-08-18T11:30:31.036Z,219.38
2022-08-18T11:31:24.675Z,208.12
2022-08-18T11:32:23.644Z,208.12
2022-08-18T11:33:24.531Z,213.75
2022-08-18T11:34:23.621Z,264.38
2022-08-18T11:35:23.610Z,275.62
2022-08-18T11:36:23.589Z,286.88
2022-08-18T11:37:23.603Z,298.12
2022-08-18T11:38:23.773Z,213.75
2022-08-18T11:39:35.883Z,213.75
2022-08-18T11:41:24.674Z,202.50
2022-08-18T11:43:27.515Z,202.50
2022-08-18T11:44:26.501Z,191.25
2022-08-18T11:45:24.727Z,180.00
2022-08-18T11:47:28.011Z,258.75
2022-08-18T11:49:26.297Z,180.00
2022-08-18T11:50:23.406Z,213.75
2022-08-18T11:51:23.990Z,191.25
2022-08-18T11:52:26.137Z,281.25
2022-08-18T11:53:24.358Z,281.25
2022-08-18T11:54:24.808Z,241.88
2022-08-18T11:55:24.138Z,202.50
2022-08-18T11:56:30.885Z,185.62
2022-08-18T11:57:24.308Z,191.25
2022-08-18T11:58:23.301Z,191.25
2022-08-18T11:59:24.311Z,191.25
2022-08-18T12:00:24.510Z,213.75
2022-08-18T12:01:23.251Z,202.50
2022-08-18T12:02:24.042Z,253.12
2022-08-18T12:03:28.449Z,202.50
2022-08-18T12:04:26.284Z,208.12
2022-08-18T12:05:23.214Z,219.38
2022-08-18T12:07:24.215Z,213.75
2022-08-18T12:08:50.984Z,196.88
2022-08-18T12:10:05.077Z,196.88
2022-08-18T12:10:26.270Z,213.75
2022-08-18T12:11:26.703Z,236.25
2022-08-18T12:12:23.121Z,241.88
2022-08-18T12:13:23.144Z,225.00
2022-08-18T12:14:31.965Z,208.12
2022-08-18T12:15:24.891Z,208.12
2022-08-18T12:16:23.112Z,202.50
2022-08-18T12:17:23.039Z,202.50
2022-08-18T12:18:28.702Z,202.50
2022-08-18T12:19:24.482Z,202.50
2022-08-18T12:20:23.038Z,196.88
2022-08-18T12:21:22.990Z,191.25
2022-08-18T12:22:23.009Z,180.00
2022-08-18T12:23:25.975Z,168.75
2022-08-18T12:24:26.438Z,174.38
2022-08-18T12:25:24.817Z,185.62
2022-08-18T12:26:38.487Z,191.25
2022-08-18T12:27:23.907Z,196.88
2022-08-18T12:28:28.270Z,196.88
2022-08-18T12:29:26.358Z,202.50
2022-08-18T12:30:23.867Z,208.12
2022-08-18T12:31:22.885Z,213.75
2022-08-18T12:32:46.968Z,225.00
2022-08-18T12:34:24.949Z,236.25
2022-08-18T12:35:22.824Z,236.25
2022-08-18T12:36:22.802Z,241.88
2022-08-18T12:37:57.656Z,241.88
2022-08-18T12:38:23.812Z,241.88
2022-08-18T12:39:22.856Z,241.88
2022-08-18T12:40:22.742Z,230.62
2022-08-18T12:42:23.763Z,208.12
2022-08-18T12:43:25.735Z,264.38
2022-08-18T12:44:27.249Z,247.50
2022-08-18T12:45:22.788Z,202.50
2022-08-18T12:46:22.717Z,174.38
2022-08-18T12:47:22.672Z,180.00
2022-08-18T12:48:22.636Z,185.62
2022-08-18T12:49:22.763Z,185.62
2022-08-18T12:50:31.802Z,185.62
2022-08-18T12:51:24.909Z,185.62
2022-08-18T12:52:24.626Z,253.12
2022-08-18T12:53:29.756Z,258.75
2022-08-18T12:54:25.240Z,264.38
2022-08-18T12:55:22.560Z,247.50
2022-08-18T12:56:22.545Z,247.50
2022-08-18T12:57:51.588Z,247.50
2022-08-18T12:58:23.554Z,258.75
2022-08-18T12:59:22.505Z,236.25
2022-08-18T13:00:28.816Z,191.25
2022-08-18T13:01:23.879Z,202.50
2022-08-18T13:02:22.454Z,225.00
2022-08-18T13:03:27.377Z,236.25